Tipp City, Ohio
Current Conditions -  °F | °C
As of 4:56 PM on Friday 19 Dec 2014 (Local Time) from KDAY Reporting Station
Haze Haze  
Wind Chill: 30°   Ceiling: 2100
Heat Index: 30°   Visibility: 6mi
Dew Point: 24°   Wind: 3mph
Humidity: 79%   Direction: 310°NW
Pressure: 30.27"   Gusts: NA
Location:  39.96°N, 84.18°W
Report Text: KDAY 192156Z 31003KT 6SM HZ OVC021 M01/M04 A3027 RMK AO2 SLP264 T10111044
Loading
Personal Weather Stations






























Interactive Weather Map New forecast layout! Learn more

10-Day Weather Forecast

Advertisements
Track Severe Weather on mobile